Time;durP1;ratioP1;P1;durP2;ratioP2;P2;SDS_P1;SDS_P2;PMS_P1;PMS_P2;Temp;Humidity;BMP_temperature;BMP_pressure;BME280_temperature;BME280_humidity;BME280_pressure;Samples;Min_cycle;Max_cycle;Signal;HPM_P1;HPM_P2
2021/03/22 00:00:48;;;;;;;8.93;7.50;;;3.00;99.90;;;;;;5031050;28;20566;-73
2021/03/22 00:03:15;;;;;;;7.97;7.03;;;2.90;99.90;;;;;;5028881;28;20215;-71
2021/03/22 00:05:42;;;;;;;11.50;7.83;;;2.90;99.90;;;;;;5031010;28;20755;-72
2021/03/22 00:08:08;;;;;;;10.30;7.47;;;2.90;99.90;;;;;;5030877;28;20167;-73
2021/03/22 00:10:36;;;;;;;9.37;7.27;;;2.90;99.90;;;;;;5030820;28;20644;-73
2021/03/22 00:13:02;;;;;;;9.07;7.30;;;2.90;99.90;;;;;;5030973;28;20170;-72
2021/03/22 00:15:31;;;;;;;22.67;14.50;;;2.90;99.90;;;;;;5030683;28;20286;-72
2021/03/22 00:17:57;;;;;;;17.60;12.53;;;2.80;99.90;;;;;;5030884;28;20181;-72
2021/03/22 00:20:24;;;;;;;8.10;7.30;;;2.80;99.90;;;;;;5030807;28;20668;-73
2021/03/22 00:22:49;;;;;;;9.10;7.57;;;2.80;99.90;;;;;;5031314;28;20662;-74
2021/03/22 00:25:16;;;;;;;8.23;6.97;;;2.80;99.90;;;;;;5031950;28;20220;-73
2021/03/22 00:27:45;;;;;;;42.53;19.53;;;2.80;99.90;;;;;;5030684;28;20663;-74
2021/03/22 00:30:18;;;;;;;36.43;19.57;;;2.70;99.90;;;;;;5030716;28;20228;-74
2021/03/22 00:32:44;;;;;;;9.17;8.27;;;2.70;99.90;;;;;;5030645;28;20171;-73
2021/03/22 00:35:10;;;;;;;8.57;7.17;;;2.60;99.90;;;;;;5030423;28;20199;-72
2021/03/22 00:37:35;;;;;;;11.63;7.70;;;2.60;99.90;;;;;;5030409;28;20620;-73
2021/03/22 00:40:01;;;;;;;7.83;6.73;;;2.90;99.90;;;;;;5030647;28;20259;-74
2021/03/22 00:42:26;;;;;;;8.47;7.20;;;2.50;99.90;;;;;;5029243;28;20178;-73
2021/03/22 00:44:52;;;;;;;8.47;7.67;;;2.50;99.90;;;;;;5029954;28;20288;-72
2021/03/22 00:47:18;;;;;;;8.80;7.90;;;2.50;99.90;;;;;;5030531;28;20209;-74
2021/03/22 00:49:43;;;;;;;8.20;7.27;;;2.50;99.90;;;;;;5030464;28;20209;-74
2021/03/22 00:52:11;;;;;;;8.30;7.33;;;2.40;99.90;;;;;;5030892;28;20206;-73
2021/03/22 00:54:39;;;;;;;9.50;8.00;;;2.40;99.90;;;;;;5030540;28;20220;-73
2021/03/22 00:57:06;;;;;;;7.80;7.00;;;2.40;99.90;;;;;;5030471;28;20199;-72
2021/03/22 00:59:33;;;;;;;9.47;7.53;;;2.50;99.90;;;;;;5030398;28;20167;-74
2021/03/22 01:01:58;;;;;;;9.10;7.67;;;2.50;99.90;;;;;;5028863;28;20201;-73
2021/03/22 01:04:24;;;;;;;9.50;8.47;;;2.50;99.90;;;;;;5030368;28;20648;-73
2021/03/22 01:06:50;;;;;;;10.77;7.53;;;2.40;99.90;;;;;;5030419;28;20203;-73
2021/03/22 01:09:15;;;;;;;8.90;7.70;;;2.30;99.90;;;;;;5047902;23;20230;-74
2021/03/22 01:11:41;;;;;;;9.33;7.63;;;2.30;99.90;;;;;;5033863;28;20174;-73
2021/03/22 01:14:07;;;;;;;9.73;7.73;;;2.30;99.90;;;;;;5036329;28;20190;-74
2021/03/22 01:16:35;;;;;;;9.00;8.07;;;2.30;99.90;;;;;;5044283;28;20553;-73
2021/03/22 01:19:08;;;;;;;8.47;7.60;;;2.30;99.90;;;;;;5041610;28;20209;-74
2021/03/22 01:21:40;;;;;;;11.33;8.50;;;2.30;99.90;;;;;;5053836;28;20180;-74
2021/03/22 01:24:08;;;;;;;9.50;8.50;;;2.30;99.90;;;;;;5053856;28;20178;-73
2021/03/22 01:26:36;;;;;;;8.90;7.20;;;2.30;99.90;;;;;;5053609;28;20205;-74
2021/03/22 01:29:14;;;;;;;8.67;7.70;;;2.30;99.90;;;;;;5034629;28;20205;-73
2021/03/22 01:31:39;;;;;;;11.83;8.73;;;2.20;99.90;;;;;;5039534;28;20189;-74
2021/03/22 01:34:05;;;;;;;10.70;8.60;;;2.10;99.90;;;;;;5033208;28;20177;-74
2021/03/22 01:36:33;;;;;;;9.03;8.13;;;2.00;99.90;;;;;;5035624;28;20182;-75
2021/03/22 01:39:05;;;;;;;9.20;8.20;;;1.90;99.90;;;;;;5029752;28;20195;-75
2021/03/22 01:41:49;;;;;;;9.73;8.17;;;1.90;99.90;;;;;;5025868;28;20174;-74
2021/03/22 01:44:20;;;;;;;9.00;7.87;;;1.90;99.90;;;;;;5035585;28;20175;-74
2021/03/22 01:46:58;;;;;;;15.27;10.03;;;1.90;99.90;;;;;;5035348;28;20237;-74
2021/03/22 01:49:27;;;;;;;11.43;8.97;;;1.90;99.90;;;;;;5051641;28;20194;-74
2021/03/22 01:51:54;;;;;;;14.17;9.43;;;2.00;99.90;;;;;;5055213;28;20176;-74
2021/03/22 01:54:21;;;;;;;13.67;9.87;;;2.10;99.90;;;;;;5055402;28;20627;-75
2021/03/22 01:57:15;;;;;;;10.97;9.37;;;2.10;99.90;;;;;;5053865;28;20252;-74
2021/03/22 01:59:41;;;;;;;11.03;8.60;;;2.10;99.90;;;;;;5054751;28;20265;-74
2021/03/22 02:02:06;;;;;;;16.07;9.30;;;2.00;99.90;;;;;;5053942;28;20208;-74
2021/03/22 02:04:33;;;;;;;20.40;10.33;;;2.10;99.90;;;;;;5037743;28;20183;-74
2021/03/22 02:06:59;;;;;;;13.37;9.93;;;2.10;99.90;;;;;;5033693;28;20237;-74
2021/03/22 02:09:26;;;;;;;14.43;10.60;;;2.00;99.90;;;;;;5033405;28;20210;-74
2021/03/22 02:11:51;;;;;;;13.40;10.30;;;2.10;99.90;;;;;;5034878;28;20175;-74
2021/03/22 02:14:17;;;;;;;12.37;10.07;;;2.10;99.90;;;;;;5034656;28;20716;-74
2021/03/22 02:17:02;;;;;;;9.87;8.83;;;2.10;99.90;;;;;;5034980;28;20171;-74
2021/03/22 02:19:55;;;;;;;12.17;9.13;;;2.00;99.90;;;;;;5032560;28;20262;-74
2021/03/22 02:22:48;;;;;;;9.70;8.03;;;1.90;99.90;;;;;;5034937;28;20585;-74
2021/03/22 02:25:14;;;;;;;10.80;9.60;;;1.90;99.90;;;;;;5034392;28;20569;-74
2021/03/22 02:28:10;;;;;;;12.70;9.80;;;1.70;99.90;;;;;;5034575;28;20171;-74
2021/03/22 02:31:01;;;;;;;14.13;9.17;;;1.70;99.90;;;;;;5034749;28;20253;-74
2021/03/22 02:33:27;;;;;;;11.33;9.27;;;1.60;99.90;;;;;;5034303;28;20183;-74
2021/03/22 02:36:06;;;;;;;14.63;10.13;;;1.60;99.90;;;;;;5034519;28;20585;-73
2021/03/22 02:38:45;;;;;;;11.83;8.80;;;1.50;99.90;;;;;;5050241;28;20232;-74
2021/03/22 02:41:23;;;;;;;12.93;9.53;;;1.50;99.90;;;;;;5052794;28;20177;-73
2021/03/22 02:44:11;;;;;;;11.07;9.90;;;1.50;99.90;;;;;;5054269;28;20182;-73
2021/03/22 02:46:38;;;;;;;13.13;9.90;;;1.40;99.90;;;;;;5041607;28;20282;-73
2021/03/22 02:49:11;;;;;;;11.57;9.40;;;1.40;99.90;;;;;;5052576;28;20243;-73
2021/03/22 02:52:01;;;;;;;13.13;9.77;;;1.40;99.90;;;;;;5053952;28;20184;-73
2021/03/22 02:54:56;;;;;;;14.23;10.17;;;1.40;99.90;;;;;;5038500;28;20571;-73
2021/03/22 02:57:42;;;;;;;12.43;9.90;;;1.30;99.90;;;;;;5053803;28;20200;-75
2021/03/22 03:00:30;;;;;;;18.33;9.97;;;1.30;99.90;;;;;;5053741;28;20605;-75
2021/03/22 03:03:00;;;;;;;15.30;10.70;;;1.30;99.90;;;;;;5043102;28;20556;-74
2021/03/22 03:05:30;;;;;;;17.00;10.73;;;1.30;99.90;;;;;;5040209;28;20198;-74
2021/03/22 03:07:58;;;;;;;12.10;10.57;;;1.30;99.90;;;;;;5024536;28;20182;-74
2021/03/22 03:10:25;;;;;;;16.60;9.93;;;1.30;99.90;;;;;;5025112;28;20248;-74
2021/03/22 03:12:51;;;;;;;12.73;10.17;;;1.20;99.90;;;;;;5031887;28;20196;-75
2021/03/22 03:15:18;;;;;;;14.83;10.50;;;1.30;99.90;;;;;;5031875;28;20213;-74
2021/03/22 03:17:44;;;;;;;11.47;9.83;;;1.30;99.90;;;;;;5032342;28;20651;-74
2021/03/22 03:20:14;;;;;;;15.07;9.90;;;1.30;99.90;;;;;;5032626;28;20225;-74
2021/03/22 03:22:40;;;;;;;13.03;9.87;;;1.30;99.90;;;;;;5033581;28;20216;-74
2021/03/22 03:25:11;;;;;;;13.10;10.60;;;1.30;99.90;;;;;;5033429;28;20198;-74
2021/03/22 03:27:37;;;;;;;14.40;10.33;;;1.20;99.90;;;;;;5032289;28;20586;-74
2021/03/22 03:30:07;;;;;;;13.87;10.60;;;1.20;99.90;;;;;;5030441;28;20198;-74
2021/03/22 03:32:40;;;;;;;13.03;10.20;;;1.20;99.90;;;;;;5031000;28;20206;-74
2021/03/22 03:35:09;;;;;;;11.40;9.47;;;1.20;99.90;;;;;;5032192;28;20554;-74
2021/03/22 03:37:35;;;;;;;12.97;10.23;;;1.20;99.90;;;;;;5032058;28;20170;-74
2021/03/22 03:40:04;;;;;;;13.30;9.97;;;1.20;99.90;;;;;;5033173;28;20734;-74
2021/03/22 03:42:30;;;;;;;12.17;9.30;;;1.20;99.90;;;;;;5026836;28;20176;-74
2021/03/22 03:44:56;;;;;;;14.47;9.93;;;1.20;99.90;;;;;;5005072;28;20214;-74
2021/03/22 03:47:24;;;;;;;15.60;10.13;;;1.20;99.90;;;;;;5027382;28;20695;-74
2021/03/22 03:49:50;;;;;;;15.87;10.37;;;1.20;99.90;;;;;;5024410;28;20194;-74
2021/03/22 03:52:16;;;;;;;16.60;9.93;;;1.20;99.90;;;;;;5015536;28;20186;-74
2021/03/22 03:54:41;;;;;;;20.47;11.33;;;1.20;99.90;;;;;;5031917;28;20664;-74
2021/03/22 03:57:09;;;;;;;19.83;11.30;;;1.20;99.90;;;;;;5032433;28;20193;-74
2021/03/22 03:59:35;;;;;;;17.30;10.73;;;1.10;99.90;;;;;;5020613;28;20197;-74
2021/03/22 04:02:01;;;;;;;16.27;11.63;;;1.10;99.90;;;;;;5031819;28;20266;-74
2021/03/22 04:04:26;;;;;;;23.37;11.67;;;1.10;99.90;;;;;;5031479;28;20260;-73
2021/03/22 04:06:52;;;;;;;22.20;11.07;;;1.10;99.90;;;;;;5044340;28;20185;-73
2021/03/22 04:09:20;;;;;;;19.73;10.73;;;1.00;99.90;;;;;;5048299;28;20210;-73
2021/03/22 04:11:49;;;;;;;15.53;11.87;;;1.00;99.90;;;;;;5025260;28;20557;-74
2021/03/22 04:14:18;;;;;;;21.73;12.10;;;1.10;99.90;;;;;;5052998;28;20172;-74
2021/03/22 04:16:44;;;;;;;19.17;12.40;;;1.00;99.90;;;;;;5052908;28;20174;-74
2021/03/22 04:19:11;;;;;;;23.43;12.80;;;1.00;99.90;;;;;;5042506;28;20206;-74
2021/03/22 04:21:37;;;;;;;22.10;12.50;;;1.00;99.90;;;;;;5031337;28;20186;-74
2021/03/22 04:24:07;;;;;;;25.23;12.93;;;1.00;99.90;;;;;;5030865;28;20206;-74
2021/03/22 04:26:32;;;;;;;21.40;13.07;;;1.00;99.90;;;;;;5031354;28;20206;-74
2021/03/22 04:28:59;;;;;;;27.73;13.30;;;1.00;99.90;;;;;;5032913;28;20198;-74
2021/03/22 04:31:27;;;;;;;25.43;13.97;;;1.10;99.90;;;;;;5032908;28;20677;-74
2021/03/22 04:33:53;;;;;;;19.27;12.40;;;1.10;99.90;;;;;;5031550;28;20317;-74
2021/03/22 04:36:23;;;;;;;21.40;12.17;;;1.20;99.90;;;;;;5032953;28;20178;-74
2021/03/22 04:38:49;;;;;;;20.43;12.07;;;1.20;99.90;;;;;;5035032;22;20201;-74
2021/03/22 04:41:15;;;;;;;24.60;12.37;;;1.20;99.90;;;;;;5010629;28;20182;-74
2021/03/22 04:43:41;;;;;;;20.93;12.70;;;1.10;99.90;;;;;;5025123;28;20544;-74
2021/03/22 04:46:07;;;;;;;21.27;12.37;;;1.20;99.90;;;;;;5026431;28;20681;-74
2021/03/22 04:48:33;;;;;;;18.53;12.47;;;1.20;99.90;;;;;;5033989;28;20210;-74
2021/03/22 04:50:59;;;;;;;25.77;13.40;;;1.10;99.90;;;;;;5032174;28;20574;-74
2021/03/22 04:53:25;;;;;;;22.20;12.07;;;1.20;99.90;;;;;;5026205;28;20230;-74
2021/03/22 04:55:51;;;;;;;23.70;12.70;;;1.10;99.90;;;;;;5036133;28;20179;-73
2021/03/22 04:58:17;;;;;;;18.30;11.57;;;1.10;99.90;;;;;;5030868;28;20723;-73
2021/03/22 05:00:45;;;;;;;18.13;11.33;;;1.40;99.90;;;;;;5027025;28;20179;-74
2021/03/22 05:03:17;;;;;;;18.37;13.13;;;1.10;99.90;;;;;;5010612;28;20548;-74
2021/03/22 05:05:43;;;;;;;22.90;12.30;;;1.00;99.90;;;;;;5014756;28;20210;-74
2021/03/22 05:08:15;;;;;;;21.67;12.00;;;1.00;99.90;;;;;;5012525;28;20179;-74
2021/03/22 05:10:44;;;;;;;26.17;11.40;;;1.00;99.90;;;;;;5026921;28;20871;-74
2021/03/22 05:13:13;;;;;;;25.10;12.73;;;1.10;99.90;;;;;;5013187;28;20218;-74
2021/03/22 05:15:39;;;;;;;19.97;12.47;;;1.10;99.90;;;;;;5000449;28;20177;-73
2021/03/22 05:18:07;;;;;;;24.37;12.57;;;1.00;99.90;;;;;;4998494;28;20187;-74
2021/03/22 05:20:41;;;;;;;29.93;12.23;;;1.10;99.90;;;;;;5010034;28;20566;-73
2021/03/22 05:23:10;;;;;;;22.30;13.17;;;1.10;99.90;;;;;;5014876;28;20896;-73
2021/03/22 05:25:36;;;;;;;26.43;12.47;;;1.10;99.90;;;;;;5017947;28;20566;-73
2021/03/22 05:28:03;;;;;;;28.63;14.13;;;1.10;99.90;;;;;;5035587;28;20171;-73
2021/03/22 05:30:30;;;;;;;21.47;11.57;;;1.10;99.90;;;;;;5034484;28;20181;-73
2021/03/22 05:33:02;;;;;;;24.33;13.13;;;1.20;99.90;;;;;;5036102;28;20174;-73
2021/03/22 05:35:29;;;;;;;25.83;13.10;;;1.20;99.90;;;;;;5018588;28;20236;-74
2021/03/22 05:37:55;;;;;;;20.87;13.17;;;1.20;99.90;;;;;;5027221;28;20652;-73
2021/03/22 05:40:34;;;;;;;22.77;12.93;;;1.20;99.90;;;;;;5035598;28;20198;-73
2021/03/22 05:43:20;;;;;;;30.37;13.93;;;1.30;99.90;;;;;;5035540;28;20523;-73
2021/03/22 05:46:10;;;;;;;25.13;12.83;;;1.30;99.90;;;;;;5001954;28;20283;-75
2021/03/22 05:48:50;;;;;;;22.43;13.40;;;1.30;99.90;;;;;;5026126;28;20543;-74
2021/03/22 05:51:32;;;;;;;23.13;12.80;;;1.40;99.90;;;;;;5034007;28;20173;-74
2021/03/22 05:54:16;;;;;;;23.37;11.93;;;1.40;99.90;;;;;;5034595;28;20179;-75
2021/03/22 05:56:47;;;;;;;28.60;12.60;;;1.40;99.90;;;;;;5035211;28;20189;-74
2021/03/22 05:59:21;;;;;;;31.13;14.80;;;1.50;99.90;;;;;;5034785;28;20201;-74
2021/03/22 06:01:54;;;;;;;26.90;13.47;;;1.50;99.90;;;;;;5035383;28;20239;-74
2021/03/22 06:04:29;;;;;;;28.97;13.90;;;1.50;99.90;;;;;;5035051;28;20182;-74
2021/03/22 06:06:55;;;;;;;26.67;13.50;;;1.50;99.90;;;;;;5035037;28;20188;-74
2021/03/22 06:09:52;;;;;;;23.87;12.70;;;1.50;99.90;;;;;;5034720;28;20198;-75
2021/03/22 06:12:29;;;;;;;31.57;13.80;;;1.60;99.90;;;;;;5014922;28;20225;-74
2021/03/22 06:15:18;;;;;;;26.53;13.57;;;1.60;99.90;;;;;;5034879;28;20273;-74
2021/03/22 06:18:05;;;;;;;29.07;14.87;;;1.60;99.90;;;;;;5033472;28;20187;-74
2021/03/22 06:20:37;;;;;;;30.00;15.10;;;1.60;99.90;;;;;;5033479;28;20213;-74
2021/03/22 06:23:17;;;;;;;26.03;14.17;;;1.60;99.90;;;;;;5034668;28;20190;-74
2021/03/22 06:25:43;;;;;;;30.53;15.00;;;1.60;99.90;;;;;;5034438;28;20198;-75
2021/03/22 06:28:15;;;;;;;25.47;14.83;;;1.60;99.90;;;;;;5034217;28;20178;-74
2021/03/22 06:31:03;;;;;;;32.03;16.50;;;1.60;99.90;;;;;;5034500;28;20748;-75
2021/03/22 06:33:35;;;;;;;34.90;15.97;;;1.70;99.90;;;;;;5034146;28;20546;-75
2021/03/22 06:36:01;;;;;;;30.43;16.10;;;1.70;99.90;;;;;;5027176;28;20174;-75
2021/03/22 06:38:27;;;;;;;32.30;15.60;;;1.80;99.90;;;;;;5034525;28;20201;-74
2021/03/22 06:40:53;;;;;;;33.57;17.03;;;1.80;99.90;;;;;;5032965;28;20191;-75
2021/03/22 06:43:22;;;;;;;29.93;15.33;;;1.90;99.90;;;;;;5034476;28;20270;-75
2021/03/22 06:46:10;;;;;;;36.97;15.30;;;1.90;99.90;;;;;;5032424;28;20194;-74
2021/03/22 06:48:37;;;;;;;33.27;15.53;;;2.00;99.90;;;;;;5033981;28;20242;-75
2021/03/22 06:51:03;;;;;;;36.53;16.40;;;2.00;99.90;;;;;;5033088;28;20194;-75
2021/03/22 06:53:39;;;;;;;29.27;15.73;;;1.90;99.90;;;;;;5034241;28;20637;-75
2021/03/22 06:56:25;;;;;;;36.80;15.60;;;1.90;99.90;;;;;;5034274;28;20253;-75
2021/03/22 06:59:06;;;;;;;31.57;15.17;;;2.00;99.90;;;;;;5032517;28;20207;-74
2021/03/22 07:01:32;;;;;;;36.30;15.80;;;1.90;99.90;;;;;;5032789;28;20244;-74
2021/03/22 07:04:15;;;;;;;29.03;15.20;;;2.00;99.90;;;;;;5033895;28;20637;-75
2021/03/22 07:06:42;;;;;;;31.63;15.80;;;2.00;99.90;;;;;;5033544;28;20631;-75
2021/03/22 07:09:27;;;;;;;29.00;15.20;;;2.10;99.90;;;;;;5033760;28;20721;-75
2021/03/22 07:11:53;;;;;;;32.37;15.83;;;2.20;99.90;;;;;;5035550;28;20174;-75
2021/03/22 07:14:25;;;;;;;30.07;15.67;;;2.30;99.90;;;;;;5033751;28;20181;-75
2021/03/22 07:17:07;;;;;;;27.80;15.00;;;2.40;99.90;;;;;;5031179;28;20174;-75
2021/03/22 07:19:33;;;;;;;29.27;15.30;;;2.50;99.90;;;;;;5030814;28;20202;-74
2021/03/22 07:22:16;;;;;;;35.03;15.47;;;2.60;99.90;;;;;;5032400;28;20671;-75
2021/03/22 07:25:00;;;;;;;30.23;15.37;;;2.70;99.90;;;;;;5033431;28;20174;-75
2021/03/22 07:27:38;;;;;;;27.47;13.93;;;2.70;99.90;;;;;;5033688;28;20787;-75
2021/03/22 07:30:48;;;;;;;34.93;15.20;;;2.80;99.90;;;;;;5033446;28;20739;-74
2021/03/22 07:33:19;;;;;;;30.33;13.40;;;2.90;99.90;;;;;;4972461;28;20236;-75
2021/03/22 07:36:21;;;;;;;31.80;13.90;;;3.00;99.90;;;;;;5026796;28;20282;-74
2021/03/22 07:39:18;;;;;;;27.63;15.33;;;3.00;99.90;;;;;;5033427;28;20198;-75
2021/03/22 07:42:02;;;;;;;30.13;14.70;;;3.10;99.90;;;;;;5033358;28;20718;-75
2021/03/22 07:44:46;;;;;;;34.57;15.67;;;3.10;99.90;;;;;;5033619;28;20259;-75
2021/03/22 07:47:23;;;;;;;40.30;16.13;;;3.20;99.90;;;;;;5034114;28;20273;-75
2021/03/22 07:50:29;;;;;;;27.23;15.97;;;3.20;99.90;;;;;;5032264;28;20665;-75
2021/03/22 07:53:13;;;;;;;32.00;14.37;;;3.30;99.90;;;;;;5033389;28;20248;-74
2021/03/22 07:55:56;;;;;;;24.37;13.33;;;3.30;99.90;;;;;;5031730;28;20206;-75
2021/03/22 07:58:40;;;;;;;27.17;13.73;;;3.40;99.90;;;;;;5033251;28;20203;-75
2021/03/22 08:01:28;;;;;;;34.47;10.93;;;3.40;99.90;;;;;;5031773;28;20211;-75
2021/03/22 08:04:39;;;;;;;25.13;9.27;;;3.60;99.90;;;;;;5033147;28;20182;-75
2021/03/22 08:07:38;;;;;;;24.77;9.50;;;3.60;99.90;;;;;;5033178;28;20183;-75
2021/03/22 08:10:22;;;;;;;24.13;8.37;;;3.70;99.90;;;;;;5033006;28;20222;-75
2021/03/22 08:13:15;;;;;;;25.70;8.20;;;3.80;99.90;;;;;;5031717;28;20168;-75
2021/03/22 08:16:04;;;;;;;25.63;7.80;;;3.80;99.90;;;;;;5033118;28;20181;-75
2021/03/22 08:18:43;;;;;;;23.30;7.77;;;3.90;99.90;;;;;;5036535;28;20198;-75
2021/03/22 08:21:17;;;;;;;34.57;8.67;;;4.00;99.90;;;;;;5036674;28;20718;-75
2021/03/22 08:24:11;;;;;;;16.40;7.73;;;4.10;99.90;;;;;;5035686;28;20681;-74
2021/03/22 08:26:49;;;;;;;21.00;8.23;;;4.20;99.90;;;;;;5036777;28;20655;-75
2021/03/22 08:29:23;;;;;;;22.93;6.90;;;4.20;99.90;;;;;;5036774;28;20195;-75
2021/03/22 08:31:57;;;;;;;29.43;7.47;;;4.30;99.90;;;;;;5036658;28;20221;-75
2021/03/22 08:35:33;;;;;;;21.97;7.10;;;4.30;99.90;;;;;;5028739;28;20186;-75
2021/03/22 08:38:03;;;;;;;24.13;7.80;;;4.50;99.90;;;;;;4962141;28;20187;-75
2021/03/22 08:41:05;;;;;;;21.53;8.17;;;4.50;99.90;;;;;;4959494;28;20756;-75
2021/03/22 08:43:51;;;;;;;24.37;7.33;;;4.60;99.90;;;;;;5011937;28;20188;-75
2021/03/22 08:46:52;;;;;;;24.87;7.43;;;4.70;99.90;;;;;;5035331;28;20296;-75
2021/03/22 08:49:56;;;;;;;26.40;7.30;;;4.70;99.90;;;;;;5036119;28;20549;-75
2021/03/22 08:52:33;;;;;;;23.50;8.50;;;4.70;99.90;;;;;;5036481;28;20664;-75
2021/03/22 08:55:17;;;;;;;22.40;7.40;;;4.70;99.90;;;;;;5036561;28;20179;-75
2021/03/22 08:58:00;;;;;;;21.40;6.53;;;4.80;99.90;;;;;;5034981;28;20185;-75
2021/03/22 09:00:28;;;;;;;13.47;4.90;;;4.80;99.90;;;;;;5035293;28;20568;-75
2021/03/22 09:03:05;;;;;;;42.13;15.70;;;4.70;99.90;;;;;;5036180;28;20183;-74
2021/03/22 09:05:33;;;;;;;19.60;4.77;;;4.70;99.90;;;;;;5035786;28;20295;-75
2021/03/22 09:08:19;;;;;;;17.53;4.63;;;4.60;99.90;;;;;;5034840;28;20230;-75
2021/03/22 09:10:46;;;;;;;17.57;5.53;;;4.60;99.90;;;;;;5036134;28;20180;-75
2021/03/22 09:13:25;;;;;;;17.33;4.93;;;4.60;99.90;;;;;;5034801;28;20179;-75
2021/03/22 09:16:14;;;;;;;13.70;4.30;;;4.60;99.90;;;;;;5036119;28;20175;-75
2021/03/22 09:19:12;;;;;;;15.93;4.43;;;4.60;99.90;;;;;;5034298;28;20198;-75
2021/03/22 09:22:10;;;;;;;17.60;4.63;;;4.60;99.90;;;;;;5007759;28;20607;-75
2021/03/22 09:27:13;;;;;;;23.87;4.93;;;4.60;99.90;;;;;;5036248;28;20251;-75
2021/03/22 09:29:53;;;;;;;19.63;4.40;;;4.60;99.90;;;;;;5033796;28;20623;-75
2021/03/22 09:32:21;;;;;;;15.37;5.07;;;4.60;99.90;;;;;;5028736;28;20255;-75
2021/03/22 09:34:47;;;;;;;21.77;4.97;;;4.60;99.90;;;;;;5018734;28;20260;-75
2021/03/22 09:37:49;;;;;;;15.97;4.80;;;4.70;99.90;;;;;;5017563;28;20273;-75
2021/03/22 09:40:26;;;;;;;14.33;4.23;;;4.80;99.90;;;;;;5017094;28;20297;-75
2021/03/22 09:43:18;;;;;;;17.93;4.80;;;4.80;99.90;;;;;;5008412;28;20179;-75
2021/03/22 09:45:50;;;;;;;12.97;4.27;;;4.90;99.90;;;;;;5012158;28;20558;-75
2021/03/22 09:48:15;;;;;;;14.83;4.20;;;4.90;99.90;;;;;;5031192;28;20195;-75
2021/03/22 09:50:43;;;;;;;14.13;5.37;;;4.80;99.90;;;;;;5032905;28;20689;-75
2021/03/22 09:53:18;;;;;;;10.30;3.53;;;4.80;99.90;;;;;;5025720;28;20176;-75
2021/03/22 09:55:55;;;;;;;20.13;4.53;;;4.80;99.90;;;;;;5022576;28;20541;-75
2021/03/22 09:58:38;;;;;;;13.70;3.67;;;4.90;99.90;;;;;;5035244;28;20208;-76
2021/03/22 10:01:30;;;;;;;13.23;5.63;;;4.90;99.90;;;;;;5035221;28;20211;-76
2021/03/22 10:04:21;;;;;;;15.03;4.03;;;4.80;99.90;;;;;;5015159;28;20199;-75
2021/03/22 10:06:56;;;;;;;17.23;4.27;;;4.90;99.90;;;;;;5013397;28;20224;-75
2021/03/22 10:09:36;;;;;;;16.43;3.90;;;4.90;99.90;;;;;;5017324;28;20200;-75
2021/03/22 10:12:31;;;;;;;11.07;3.73;;;4.80;99.90;;;;;;5032931;28;20266;-76
2021/03/22 10:15:12;;;;;;;13.97;3.40;;;4.90;99.90;;;;;;5011633;28;20655;-76
2021/03/22 10:17:48;;;;;;;14.57;3.40;;;4.80;99.90;;;;;;5012212;28;20179;-75
2021/03/22 10:20:38;;;;;;;10.90;3.53;;;4.90;99.90;;;;;;5014751;28;20636;-76
2021/03/22 10:23:30;;;;;;;14.80;3.10;;;4.90;99.90;;;;;;5032915;28;20287;-76
2021/03/22 10:26:14;;;;;;;11.83;3.87;;;5.00;99.90;;;;;;5022021;28;20279;-76
2021/03/22 10:28:41;;;;;;;12.17;2.97;;;5.00;99.90;;;;;;5020008;28;20188;-74
2021/03/22 10:31:16;;;;;;;15.70;3.90;;;5.00;99.90;;;;;;5034677;28;20566;-75
2021/03/22 10:33:47;;;;;;;14.17;3.47;;;5.00;99.90;;;;;;5027936;28;20677;-75
2021/03/22 10:36:24;;;;;;;11.97;3.33;;;5.10;99.90;;;;;;5016280;28;20193;-75
2021/03/22 10:38:52;;;;;;;12.07;4.67;;;5.00;99.90;;;;;;5030429;28;20669;-75
2021/03/22 10:41:29;;;;;;;13.77;3.47;;;5.10;99.90;;;;;;5013532;28;20571;-76
2021/03/22 10:43:57;;;;;;;11.93;3.50;;;5.10;99.90;;;;;;5012932;28;20512;-76
2021/03/22 10:46:27;;;;;;;13.33;3.10;;;5.30;99.90;;;;;;5011724;28;20208;-75
2021/03/22 10:49:07;;;;;;;11.23;3.13;;;5.30;99.90;;;;;;5013525;28;20218;-76
2021/03/22 10:51:46;;;;;;;14.37;3.70;;;5.20;99.90;;;;;;5031751;28;20243;-76
2021/03/22 10:54:17;;;;;;;10.67;3.03;;;5.20;99.90;;;;;;5019007;28;20168;-76
2021/03/22 10:56:51;;;;;;;11.90;3.33;;;5.20;99.90;;;;;;5025075;28;20270;-75
2021/03/22 10:59:26;;;;;;;10.63;3.17;;;5.10;99.90;;;;;;5010247;28;20207;-76
2021/03/22 11:02:08;;;;;;;13.57;3.20;;;5.10;99.90;;;;;;5072873;28;20511;-74
2021/03/22 11:04:37;;;;;;;13.80;3.37;;;5.10;99.90;;;;;;5066199;28;20182;-75
2021/03/22 11:07:16;;;;;;;11.97;3.00;;;5.10;99.90;;;;;;5070394;28;20672;-74
2021/03/22 11:09:53;;;;;;;9.43;2.80;;;5.10;99.90;;;;;;5068708;28;20198;-74
2021/03/22 11:12:20;;;;;;;9.90;2.70;;;5.10;99.90;;;;;;5070347;28;20594;-75
2021/03/22 11:14:46;;;;;;;9.00;2.83;;;5.10;99.90;;;;;;5070487;28;20241;-75
2021/03/22 11:17:16;;;;;;;9.43;2.70;;;5.10;99.90;;;;;;5069059;28;20645;-75
2021/03/22 11:19:44;;;;;;;11.47;3.37;;;5.10;99.90;;;;;;5075830;28;20202;-75
2021/03/22 11:22:41;;;;;;;13.97;3.33;;;5.10;99.90;;;;;;5095215;28;20185;-75
2021/03/22 11:25:28;;;;;;;6.70;3.00;;;5.10;99.90;;;;;;5064826;28;20194;-75
2021/03/22 11:27:59;;;;;;;7.97;2.80;;;5.10;99.90;;;;;;5068668;28;20653;-75
2021/03/22 11:30:57;;;;;;;8.73;2.80;;;5.20;99.90;;;;;;5068782;28;20188;-75
2021/03/22 11:33:26;;;;;;;10.47;3.13;;;5.20;99.90;;;;;;5073740;28;20184;-74
2021/03/22 11:36:08;;;;;;;7.77;3.60;;;5.20;99.90;;;;;;5077628;28;20720;-75
2021/03/22 11:38:55;;;;;;;6.67;2.77;;;5.30;99.90;;;;;;5069973;28;20199;-75
2021/03/22 11:41:40;;;;;;;12.27;2.90;;;5.30;99.90;;;;;;5055563;28;20203;-75
2021/03/22 11:44:05;;;;;;;8.13;3.17;;;5.30;99.90;;;;;;5058777;28;20637;-75
2021/03/22 11:46:33;;;;;;;11.13;3.13;;;5.30;99.90;;;;;;5060284;28;20188;-75
2021/03/22 11:48:59;;;;;;;11.97;3.77;;;5.20;99.90;;;;;;5069655;28;20201;-75
2021/03/22 11:51:25;;;;;;;7.30;2.87;;;5.20;99.90;;;;;;5069531;28;20191;-75
2021/03/22 11:54:09;;;;;;;12.57;3.00;;;5.10;99.90;;;;;;5069258;28;20199;-75
2021/03/22 11:56:37;;;;;;;10.07;3.30;;;5.10;99.90;;;;;;5068208;28;20184;-75
2021/03/22 11:59:22;;;;;;;10.00;2.77;;;5.20;99.90;;;;;;5069220;28;20670;-75
2021/03/22 12:02:12;;;;;;;10.23;3.27;;;5.20;99.90;;;;;;5058069;28;20297;-74
2021/03/22 12:04:39;;;;;;;9.80;2.80;;;5.10;99.90;;;;;;5061220;28;20182;-74
2021/03/22 12:07:07;;;;;;;14.83;3.27;;;5.20;99.90;;;;;;5052620;28;20214;-75
2021/03/22 12:09:38;;;;;;;12.30;3.40;;;5.20;99.90;;;;;;5069343;28;20572;-74
2021/03/22 12:12:12;;;;;;;15.63;3.70;;;5.10;99.90;;;;;;5053501;28;20184;-74
2021/03/22 12:14:38;;;;;;;15.80;5.43;;;5.10;99.90;;;;;;5048606;28;20188;-74
2021/03/22 12:17:15;;;;;;;7.07;3.20;;;5.20;99.90;;;;;;5047962;28;20185;-74
2021/03/22 12:19:42;;;;;;;9.87;2.87;;;5.10;99.90;;;;;;5045786;28;20713;-75
2021/03/22 12:22:19;;;;;;;13.03;3.50;;;5.10;99.90;;;;;;5044956;28;20521;-74
2021/03/22 12:24:45;;;;;;;11.20;3.13;;;5.20;99.90;;;;;;5036607;28;20172;-75
2021/03/22 12:27:13;;;;;;;14.33;3.50;;;5.10;99.90;;;;;;5046210;28;20184;-75
2021/03/22 12:29:40;;;;;;;9.70;3.40;;;5.10;99.90;;;;;;5047024;28;20203;-75
2021/03/22 12:32:07;;;;;;;12.20;3.30;;;5.20;99.90;;;;;;5047250;28;20177;-75
2021/03/22 12:34:33;;;;;;;10.97;3.13;;;5.20;99.90;;;;;;5052913;28;20721;-75
2021/03/22 12:36:59;;;;;;;10.90;3.30;;;5.30;99.90;;;;;;5045234;28;20176;-75
2021/03/22 12:39:29;;;;;;;7.63;3.10;;;5.20;99.90;;;;;;5042354;28;20208;-75
2021/03/22 12:42:01;;;;;;;8.13;3.63;;;5.30;99.90;;;;;;5045673;28;20694;-75
2021/03/22 12:44:27;;;;;;;12.93;3.67;;;5.60;99.90;;;;;;5040919;28;20268;-75
2021/03/22 12:46:53;;;;;;;8.33;3.50;;;5.30;99.90;;;;;;5040923;28;20612;-75
2021/03/22 12:49:20;;;;;;;20.50;5.13;;;5.40;99.90;;;;;;5050429;28;20698;-75
2021/03/22 12:51:47;;;;;;;13.83;4.90;;;5.40;99.90;;;;;;5046006;28;20199;-75
2021/03/22 12:54:13;;;;;;;16.57;4.30;;;5.40;99.90;;;;;;5052567;28;20729;-75
2021/03/22 12:56:39;;;;;;;13.97;4.50;;;5.30;99.90;;;;;;5050838;28;20266;-75
2021/03/22 12:59:06;;;;;;;17.43;4.53;;;5.40;99.90;;;;;;5053272;28;20295;-75
2021/03/22 13:01:32;;;;;;;13.43;4.27;;;5.50;99.90;;;;;;5053121;28;20221;-75
2021/03/22 13:03:58;;;;;;;10.13;3.67;;;5.50;99.90;;;;;;5053502;28;20578;-75
2021/03/22 13:06:25;;;;;;;16.20;4.27;;;5.60;99.90;;;;;;5053655;28;20188;-75
2021/03/22 13:08:51;;;;;;;14.13;3.70;;;5.60;99.90;;;;;;5053429;28;20222;-75
2021/03/22 13:11:23;;;;;;;10.03;3.93;;;5.60;99.90;;;;;;5061579;23;20226;-74
2021/03/22 13:13:49;;;;;;;6.87;4.00;;;5.60;99.90;;;;;;4997008;28;20173;-74
2021/03/22 13:16:19;;;;;;;10.23;3.67;;;5.50;99.90;;;;;;5004706;28;20191;-73
2021/03/22 13:18:46;;;;;;;9.43;3.70;;;5.50;99.90;;;;;;5012569;28;20183;-74
2021/03/22 13:21:15;;;;;;;10.93;3.57;;;5.60;99.90;;;;;;4995424;28;20206;-75
2021/03/22 13:23:42;;;;;;;12.80;3.50;;;5.70;99.90;;;;;;4995624;28;20178;-73